sensor_id;sensor_type;location;lat;lon;timestamp;P1;durP1;ratioP1;P2;durP2;ratioP2
67363;SDS011;54250;45.572;38.086;2023-04-28T00:02:05;2.10;;;1.40;;
67363;SDS011;54250;45.572;38.086;2023-04-28T00:04:31;1.70;;;1.27;;
67363;SDS011;54250;45.572;38.086;2023-04-28T00:06:57;3.65;;;1.75;;
67363;SDS011;54250;45.572;38.086;2023-04-28T00:09:23;4.53;;;1.50;;
67363;SDS011;54250;45.572;38.086;2023-04-28T00:11:49;2.40;;;1.30;;
67363;SDS011;54250;45.572;38.086;2023-04-28T00:14:15;3.67;;;1.42;;
67363;SDS011;54250;45.572;38.086;2023-04-28T00:16:41;1.10;;;1.00;;
67363;SDS011;54250;45.572;38.086;2023-04-28T00:19:07;2.65;;;1.20;;
67363;SDS011;54250;45.572;38.086;2023-04-28T00:21:33;4.30;;;1.35;;
67363;SDS011;54250;45.572;38.086;2023-04-28T00:23:59;2.53;;;1.30;;
67363;SDS011;54250;45.572;38.086;2023-04-28T00:26:25;4.45;;;1.80;;
67363;SDS011;54250;45.572;38.086;2023-04-28T00:28:51;0.85;;;0.85;;
67363;SDS011;54250;45.572;38.086;2023-04-28T00:31:17;3.83;;;1.40;;
67363;SDS011;54250;45.572;38.086;2023-04-28T00:33:43;2.28;;;1.73;;
67363;SDS011;54250;45.572;38.086;2023-04-28T00:36:09;2.50;;;1.85;;
67363;SDS011;54250;45.572;38.086;2023-04-28T00:38:36;12.93;;;1.20;;
67363;SDS011;54250;45.572;38.086;2023-04-28T00:41:02;5.68;;;1.60;;
67363;SDS011;54250;45.572;38.086;2023-04-28T00:43:29;1.92;;;1.10;;
67363;SDS011;54250;45.572;38.086;2023-04-28T00:45:55;1.20;;;0.77;;
67363;SDS011;54250;45.572;38.086;2023-04-28T00:48:21;1.00;;;0.82;;
67363;SDS011;54250;45.572;38.086;2023-04-28T00:50:48;3.58;;;1.67;;
67363;SDS011;54250;45.572;38.086;2023-04-28T00:53:14;1.52;;;1.27;;
67363;SDS011;54250;45.572;38.086;2023-04-28T00:55:41;3.20;;;1.40;;
67363;SDS011;54250;45.572;38.086;2023-04-28T00:58:07;4.53;;;1.83;;
67363;SDS011;54250;45.572;38.086;2023-04-28T01:00:33;8.75;;;1.40;;
67363;SDS011;54250;45.572;38.086;2023-04-28T01:03:00;3.92;;;1.98;;
67363;SDS011;54250;45.572;38.086;2023-04-28T01:05:29;3.88;;;1.95;;
67363;SDS011;54250;45.572;38.086;2023-04-28T01:07:56;4.53;;;1.48;;
67363;SDS011;54250;45.572;38.086;2023-04-28T01:10:23;1.48;;;1.23;;
67363;SDS011;54250;45.572;38.086;2023-04-28T01:12:49;3.80;;;1.77;;
67363;SDS011;54250;45.572;38.086;2023-04-28T01:15:18;2.17;;;1.23;;
67363;SDS011;54250;45.572;38.086;2023-04-28T01:17:47;2.35;;;1.67;;
67363;SDS011;54250;45.572;38.086;2023-04-28T01:20:13;8.65;;;2.00;;
67363;SDS011;54250;45.572;38.086;2023-04-28T01:22:40;6.10;;;1.60;;
67363;SDS011;54250;45.572;38.086;2023-04-28T01:25:07;2.95;;;1.63;;
67363;SDS011;54250;45.572;38.086;2023-04-28T01:27:33;1.95;;;1.52;;
67363;SDS011;54250;45.572;38.086;2023-04-28T01:30:00;1.88;;;1.42;;
67363;SDS011;54250;45.572;38.086;2023-04-28T01:32:26;2.55;;;1.45;;
67363;SDS011;54250;45.572;38.086;2023-04-28T01:34:52;2.88;;;1.73;;
67363;SDS011;54250;45.572;38.086;2023-04-28T01:37:18;2.88;;;1.65;;
67363;SDS011;54250;45.572;38.086;2023-04-28T01:39:44;4.95;;;1.65;;
67363;SDS011;54250;45.572;38.086;2023-04-28T01:42:10;4.35;;;1.92;;
67363;SDS011;54250;45.572;38.086;2023-04-28T01:44:36;1.77;;;1.23;;
67363;SDS011;54250;45.572;38.086;2023-04-28T01:47:02;2.85;;;1.48;;
67363;SDS011;54250;45.572;38.086;2023-04-28T01:49:28;3.15;;;1.90;;
67363;SDS011;54250;45.572;38.086;2023-04-28T01:51:54;6.35;;;1.90;;
67363;SDS011;54250;45.572;38.086;2023-04-28T01:54:20;2.55;;;2.00;;
67363;SDS011;54250;45.572;38.086;2023-04-28T01:56:46;2.67;;;1.52;;
67363;SDS011;54250;45.572;38.086;2023-04-28T01:59:14;10.52;;;1.77;;
67363;SDS011;54250;45.572;38.086;2023-04-28T02:01:40;4.88;;;1.75;;
67363;SDS011;54250;45.572;38.086;2023-04-28T02:04:06;2.28;;;1.45;;
67363;SDS011;54250;45.572;38.086;2023-04-28T02:06:37;2.72;;;1.55;;
67363;SDS011;54250;45.572;38.086;2023-04-28T02:09:03;2.92;;;1.63;;
67363;SDS011;54250;45.572;38.086;2023-04-28T02:11:32;2.72;;;1.77;;
67363;SDS011;54250;45.572;38.086;2023-04-28T02:13:58;3.85;;;1.30;;
67363;SDS011;54250;45.572;38.086;2023-04-28T02:16:23;18.90;;;3.47;;
67363;SDS011;54250;45.572;38.086;2023-04-28T02:18:50;5.60;;;2.47;;
67363;SDS011;54250;45.572;38.086;2023-04-28T02:21:16;7.00;;;2.58;;
67363;SDS011;54250;45.572;38.086;2023-04-28T02:23:43;9.10;;;2.58;;
67363;SDS011;54250;45.572;38.086;2023-04-28T02:26:10;10.55;;;2.67;;
67363;SDS011;54250;45.572;38.086;2023-04-28T02:28:36;6.88;;;2.95;;
67363;SDS011;54250;45.572;38.086;2023-04-28T02:31:04;2.53;;;1.95;;
67363;SDS011;54250;45.572;38.086;2023-04-28T02:33:31;4.78;;;1.60;;
67363;SDS011;54250;45.572;38.086;2023-04-28T02:36:01;3.65;;;1.42;;
67363;SDS011;54250;45.572;38.086;2023-04-28T02:38:27;7.25;;;2.45;;
67363;SDS011;54250;45.572;38.086;2023-04-28T02:41:00;4.22;;;1.75;;
67363;SDS011;54250;45.572;38.086;2023-04-28T02:43:31;8.25;;;3.13;;
67363;SDS011;54250;45.572;38.086;2023-04-28T02:45:57;12.50;;;2.88;;
67363;SDS011;54250;45.572;38.086;2023-04-28T02:48:24;11.95;;;2.50;;
67363;SDS011;54250;45.572;38.086;2023-04-28T02:50:51;7.63;;;2.33;;
67363;SDS011;54250;45.572;38.086;2023-04-28T02:53:18;5.50;;;2.10;;
67363;SDS011;54250;45.572;38.086;2023-04-28T02:55:45;5.78;;;2.80;;
67363;SDS011;54250;45.572;38.086;2023-04-28T02:58:11;6.15;;;2.78;;
67363;SDS011;54250;45.572;38.086;2023-04-28T03:00:37;8.65;;;2.97;;
67363;SDS011;54250;45.572;38.086;2023-04-28T03:03:03;6.05;;;2.72;;
67363;SDS011;54250;45.572;38.086;2023-04-28T03:05:29;8.82;;;3.28;;
67363;SDS011;54250;45.572;38.086;2023-04-28T03:07:56;11.07;;;3.03;;
67363;SDS011;54250;45.572;38.086;2023-04-28T03:10:22;5.50;;;2.45;;
67363;SDS011;54250;45.572;38.086;2023-04-28T03:12:48;3.33;;;2.50;;
67363;SDS011;54250;45.572;38.086;2023-04-28T03:15:14;6.57;;;3.22;;
67363;SDS011;54250;45.572;38.086;2023-04-28T03:17:40;4.05;;;2.75;;
67363;SDS011;54250;45.572;38.086;2023-04-28T03:20:08;9.38;;;1.80;;
67363;SDS011;54250;45.572;38.086;2023-04-28T03:22:34;5.05;;;2.42;;
67363;SDS011;54250;45.572;38.086;2023-04-28T03:25:01;4.60;;;2.95;;
67363;SDS011;54250;45.572;38.086;2023-04-28T03:27:33;6.37;;;2.87;;
67363;SDS011;54250;45.572;38.086;2023-04-28T03:30:03;6.65;;;2.40;;
67363;SDS011;54250;45.572;38.086;2023-04-28T03:32:30;11.02;;;2.65;;
67363;SDS011;54250;45.572;38.086;2023-04-28T03:34:56;10.13;;;2.53;;
67363;SDS011;54250;45.572;38.086;2023-04-28T03:37:22;8.70;;;3.03;;
67363;SDS011;54250;45.572;38.086;2023-04-28T03:39:48;7.40;;;2.92;;
67363;SDS011;54250;45.572;38.086;2023-04-28T03:42:15;8.43;;;2.55;;
67363;SDS011;54250;45.572;38.086;2023-04-28T03:44:59;7.22;;;2.50;;
67363;SDS011;54250;45.572;38.086;2023-04-28T03:47:26;5.18;;;2.03;;
67363;SDS011;54250;45.572;38.086;2023-04-28T03:49:53;5.20;;;2.40;;
67363;SDS011;54250;45.572;38.086;2023-04-28T03:52:19;9.45;;;2.70;;
67363;SDS011;54250;45.572;38.086;2023-04-28T03:54:45;5.85;;;2.65;;
67363;SDS011;54250;45.572;38.086;2023-04-28T03:57:11;12.05;;;2.78;;
67363;SDS011;54250;45.572;38.086;2023-04-28T03:59:37;7.30;;;2.30;;
67363;SDS011;54250;45.572;38.086;2023-04-28T04:02:03;4.38;;;2.40;;
67363;SDS011;54250;45.572;38.086;2023-04-28T04:04:30;5.75;;;2.58;;
67363;SDS011;54250;45.572;38.086;2023-04-28T04:06:56;6.05;;;2.90;;
67363;SDS011;54250;45.572;38.086;2023-04-28T04:09:22;7.38;;;2.83;;
67363;SDS011;54250;45.572;38.086;2023-04-28T04:11:48;6.10;;;2.55;;
67363;SDS011;54250;45.572;38.086;2023-04-28T04:14:14;6.97;;;2.67;;
67363;SDS011;54250;45.572;38.086;2023-04-28T04:16:41;5.43;;;2.55;;
67363;SDS011;54250;45.572;38.086;2023-04-28T04:19:07;14.35;;;3.03;;
67363;SDS011;54250;45.572;38.086;2023-04-28T04:21:40;4.45;;;2.53;;
67363;SDS011;54250;45.572;38.086;2023-04-28T04:24:06;6.50;;;2.33;;
67363;SDS011;54250;45.572;38.086;2023-04-28T04:26:32;5.60;;;1.90;;
67363;SDS011;54250;45.572;38.086;2023-04-28T04:28:59;12.10;;;2.08;;
67363;SDS011;54250;45.572;38.086;2023-04-28T04:31:25;5.72;;;2.50;;
67363;SDS011;54250;45.572;38.086;2023-04-28T04:33:51;2.40;;;1.88;;
67363;SDS011;54250;45.572;38.086;2023-04-28T04:36:19;1.88;;;1.50;;
67363;SDS011;54250;45.572;38.086;2023-04-28T04:38:46;8.60;;;2.13;;
67363;SDS011;54250;45.572;38.086;2023-04-28T04:41:16;13.38;;;2.38;;
67363;SDS011;54250;45.572;38.086;2023-04-28T04:43:45;8.20;;;1.80;;
67363;SDS011;54250;45.572;38.086;2023-04-28T04:46:12;4.35;;;2.13;;
67363;SDS011;54250;45.572;38.086;2023-04-28T04:48:39;8.43;;;1.80;;
67363;SDS011;54250;45.572;38.086;2023-04-28T04:51:05;6.05;;;1.65;;
67363;SDS011;54250;45.572;38.086;2023-04-28T04:53:32;1.42;;;1.23;;
67363;SDS011;54250;45.572;38.086;2023-04-28T04:55:59;4.65;;;1.70;;
67363;SDS011;54250;45.572;38.086;2023-04-28T04:58:26;1.90;;;1.58;;
67363;SDS011;54250;45.572;38.086;2023-04-28T05:01:21;6.50;;;1.63;;
67363;SDS011;54250;45.572;38.086;2023-04-28T05:03:48;3.58;;;1.58;;
67363;SDS011;54250;45.572;38.086;2023-04-28T05:06:14;3.47;;;1.35;;
67363;SDS011;54250;45.572;38.086;2023-04-28T05:08:46;2.95;;;1.30;;
67363;SDS011;54250;45.572;38.086;2023-04-28T05:11:12;0.98;;;0.85;;
67363;SDS011;54250;45.572;38.086;2023-04-28T05:13:40;3.30;;;1.00;;
67363;SDS011;54250;45.572;38.086;2023-04-28T05:16:08;3.00;;;1.60;;
67363;SDS011;54250;45.572;38.086;2023-04-28T05:18:42;2.83;;;1.35;;
67363;SDS011;54250;45.572;38.086;2023-04-28T05:21:08;2.78;;;1.10;;
67363;SDS011;54250;45.572;38.086;2023-04-28T05:23:36;2.05;;;1.17;;
67363;SDS011;54250;45.572;38.086;2023-04-28T05:26:02;4.18;;;1.60;;
67363;SDS011;54250;45.572;38.086;2023-04-28T05:28:29;1.75;;;1.40;;
67363;SDS011;54250;45.572;38.086;2023-04-28T05:30:57;6.65;;;1.75;;
67363;SDS011;54250;45.572;38.086;2023-04-28T05:33:23;2.65;;;1.10;;
67363;SDS011;54250;45.572;38.086;2023-04-28T05:35:49;2.47;;;1.23;;
67363;SDS011;54250;45.572;38.086;2023-04-28T05:38:16;1.35;;;1.13;;
67363;SDS011;54250;45.572;38.086;2023-04-28T05:40:43;6.22;;;1.73;;
67363;SDS011;54250;45.572;38.086;2023-04-28T05:43:11;3.22;;;1.70;;
67363;SDS011;54250;45.572;38.086;2023-04-28T05:45:37;2.75;;;1.65;;
67363;SDS011;54250;45.572;38.086;2023-04-28T05:48:04;2.83;;;1.60;;
67363;SDS011;54250;45.572;38.086;2023-04-28T05:50:31;5.53;;;2.20;;
67363;SDS011;54250;45.572;38.086;2023-04-28T05:52:58;3.78;;;1.65;;
67363;SDS011;54250;45.572;38.086;2023-04-28T05:55:25;6.53;;;1.77;;
67363;SDS011;54250;45.572;38.086;2023-04-28T05:57:53;4.65;;;1.52;;
67363;SDS011;54250;45.572;38.086;2023-04-28T06:00:20;2.45;;;1.75;;
67363;SDS011;54250;45.572;38.086;2023-04-28T06:02:47;4.60;;;2.15;;
67363;SDS011;54250;45.572;38.086;2023-04-28T06:05:13;4.20;;;1.38;;
67363;SDS011;54250;45.572;38.086;2023-04-28T06:07:39;3.08;;;1.90;;
67363;SDS011;54250;45.572;38.086;2023-04-28T06:10:07;5.72;;;2.22;;
67363;SDS011;54250;45.572;38.086;2023-04-28T06:12:34;2.20;;;1.65;;
67363;SDS011;54250;45.572;38.086;2023-04-28T06:15:01;7.13;;;2.10;;
67363;SDS011;54250;45.572;38.086;2023-04-28T06:17:27;5.93;;;2.13;;
67363;SDS011;54250;45.572;38.086;2023-04-28T06:19:55;3.25;;;1.80;;
67363;SDS011;54250;45.572;38.086;2023-04-28T06:22:24;9.63;;;3.25;;
67363;SDS011;54250;45.572;38.086;2023-04-28T06:24:50;9.60;;;2.55;;
67363;SDS011;54250;45.572;38.086;2023-04-28T06:27:20;6.50;;;2.45;;
67363;SDS011;54250;45.572;38.086;2023-04-28T06:29:48;4.95;;;2.55;;
67363;SDS011;54250;45.572;38.086;2023-04-28T06:32:14;7.95;;;2.13;;
67363;SDS011;54250;45.572;38.086;2023-04-28T06:34:40;4.75;;;2.10;;
67363;SDS011;54250;45.572;38.086;2023-04-28T06:37:07;7.68;;;2.50;;
67363;SDS011;54250;45.572;38.086;2023-04-28T06:39:33;3.40;;;1.90;;
67363;SDS011;54250;45.572;38.086;2023-04-28T06:41:59;6.40;;;2.20;;
67363;SDS011;54250;45.572;38.086;2023-04-28T06:44:28;16.75;;;2.15;;
67363;SDS011;54250;45.572;38.086;2023-04-28T06:46:54;6.10;;;1.90;;
67363;SDS011;54250;45.572;38.086;2023-04-28T06:49:20;2.90;;;1.77;;
67363;SDS011;54250;45.572;38.086;2023-04-28T06:51:46;2.35;;;1.50;;
67363;SDS011;54250;45.572;38.086;2023-04-28T06:54:12;8.18;;;2.35;;
67363;SDS011;54250;45.572;38.086;2023-04-28T06:56:42;3.17;;;1.75;;
67363;SDS011;54250;45.572;38.086;2023-04-28T06:59:08;4.35;;;2.42;;
67363;SDS011;54250;45.572;38.086;2023-04-28T07:01:35;6.88;;;2.10;;
67363;SDS011;54250;45.572;38.086;2023-04-28T07:04:01;4.10;;;2.30;;
67363;SDS011;54250;45.572;38.086;2023-04-28T07:06:27;5.85;;;2.40;;
67363;SDS011;54250;45.572;38.086;2023-04-28T07:08:54;8.77;;;2.22;;
67363;SDS011;54250;45.572;38.086;2023-04-28T07:11:20;10.55;;;2.35;;
67363;SDS011;54250;45.572;38.086;2023-04-28T07:13:47;8.05;;;2.25;;
67363;SDS011;54250;45.572;38.086;2023-04-28T07:16:18;4.18;;;2.38;;
67363;SDS011;54250;45.572;38.086;2023-04-28T07:18:46;9.75;;;2.75;;
67363;SDS011;54250;45.572;38.086;2023-04-28T07:21:12;5.43;;;2.67;;
67363;SDS011;54250;45.572;38.086;2023-04-28T07:23:38;5.10;;;1.95;;
67363;SDS011;54250;45.572;38.086;2023-04-28T07:26:05;4.22;;;2.17;;
67363;SDS011;54250;45.572;38.086;2023-04-28T07:28:31;3.80;;;2.10;;
67363;SDS011;54250;45.572;38.086;2023-04-28T07:30:57;3.10;;;1.77;;
67363;SDS011;54250;45.572;38.086;2023-04-28T07:33:23;5.72;;;2.78;;
67363;SDS011;54250;45.572;38.086;2023-04-28T07:35:50;15.60;;;3.10;;
67363;SDS011;54250;45.572;38.086;2023-04-28T07:38:17;4.38;;;1.67;;
67363;SDS011;54250;45.572;38.086;2023-04-28T07:40:45;7.25;;;2.22;;
67363;SDS011;54250;45.572;38.086;2023-04-28T07:43:12;6.32;;;2.58;;
67363;SDS011;54250;45.572;38.086;2023-04-28T07:45:39;6.82;;;3.08;;
67363;SDS011;54250;45.572;38.086;2023-04-28T07:48:05;7.15;;;2.22;;
67363;SDS011;54250;45.572;38.086;2023-04-28T07:50:31;4.40;;;2.67;;
67363;SDS011;54250;45.572;38.086;2023-04-28T07:52:58;3.85;;;2.17;;
67363;SDS011;54250;45.572;38.086;2023-04-28T07:55:23;7.10;;;2.85;;
67363;SDS011;54250;45.572;38.086;2023-04-28T07:57:50;9.70;;;2.90;;
67363;SDS011;54250;45.572;38.086;2023-04-28T08:00:16;11.13;;;2.67;;
67363;SDS011;54250;45.572;38.086;2023-04-28T08:02:43;6.13;;;2.95;;
67363;SDS011;54250;45.572;38.086;2023-04-28T08:05:09;3.97;;;2.58;;
67363;SDS011;54250;45.572;38.086;2023-04-28T08:07:35;9.13;;;2.13;;
67363;SDS011;54250;45.572;38.086;2023-04-28T08:10:02;7.03;;;2.75;;
67363;SDS011;54250;45.572;38.086;2023-04-28T08:12:29;4.03;;;2.70;;
67363;SDS011;54250;45.572;38.086;2023-04-28T08:14:55;6.50;;;2.50;;
67363;SDS011;54250;45.572;38.086;2023-04-28T08:17:22;3.75;;;2.30;;
67363;SDS011;54250;45.572;38.086;2023-04-28T08:19:48;3.58;;;2.20;;
67363;SDS011;54250;45.572;38.086;2023-04-28T08:22:14;6.32;;;2.33;;
67363;SDS011;54250;45.572;38.086;2023-04-28T08:24:40;7.45;;;2.35;;
67363;SDS011;54250;45.572;38.086;2023-04-28T08:27:07;2.63;;;1.73;;
67363;SDS011;54250;45.572;38.086;2023-04-28T08:29:33;4.25;;;2.15;;
67363;SDS011;54250;45.572;38.086;2023-04-28T08:31:59;5.78;;;2.60;;
67363;SDS011;54250;45.572;38.086;2023-04-28T08:34:29;3.05;;;1.90;;
67363;SDS011;54250;45.572;38.086;2023-04-28T08:36:55;8.02;;;2.28;;
67363;SDS011;54250;45.572;38.086;2023-04-28T08:39:21;3.28;;;2.20;;
67363;SDS011;54250;45.572;38.086;2023-04-28T08:41:47;6.45;;;2.45;;
67363;SDS011;54250;45.572;38.086;2023-04-28T08:44:14;7.35;;;2.38;;
67363;SDS011;54250;45.572;38.086;2023-04-28T08:46:42;3.55;;;2.55;;
67363;SDS011;54250;45.572;38.086;2023-04-28T08:49:11;4.88;;;2.47;;
67363;SDS011;54250;45.572;38.086;2023-04-28T08:51:50;4.68;;;2.42;;
67363;SDS011;54250;45.572;38.086;2023-04-28T08:54:24;4.10;;;2.63;;
67363;SDS011;54250;45.572;38.086;2023-04-28T08:56:55;3.75;;;2.22;;
67363;SDS011;54250;45.572;38.086;2023-04-28T08:59:22;3.22;;;2.00;;
67363;SDS011;54250;45.572;38.086;2023-04-28T09:01:48;4.13;;;2.28;;
67363;SDS011;54250;45.572;38.086;2023-04-28T09:04:15;2.78;;;1.80;;
67363;SDS011;54250;45.572;38.086;2023-04-28T09:06:42;1.52;;;1.42;;
67363;SDS011;54250;45.572;38.086;2023-04-28T09:09:21;3.88;;;1.77;;
67363;SDS011;54250;45.572;38.086;2023-04-28T09:11:49;2.47;;;1.80;;
67363;SDS011;54250;45.572;38.086;2023-04-28T09:14:15;3.45;;;1.80;;
67363;SDS011;54250;45.572;38.086;2023-04-28T09:16:41;5.53;;;2.10;;
67363;SDS011;54250;45.572;38.086;2023-04-28T09:19:08;3.42;;;1.80;;
67363;SDS011;54250;45.572;38.086;2023-04-28T09:21:45;8.43;;;1.60;;
67363;SDS011;54250;45.572;38.086;2023-04-28T09:26:57;3.53;;;1.70;;
67363;SDS011;54250;45.572;38.086;2023-04-28T09:29:29;5.10;;;2.42;;
67363;SDS011;54250;45.572;38.086;2023-04-28T09:32:16;2.13;;;1.60;;
67363;SDS011;54250;45.572;38.086;2023-04-28T09:34:47;2.67;;;1.30;;
67363;SDS011;54250;45.572;38.086;2023-04-28T09:37:14;2.03;;;1.60;;
67363;SDS011;54250;45.572;38.086;2023-04-28T09:39:47;5.15;;;2.20;;
67363;SDS011;54250;45.572;38.086;2023-04-28T09:42:36;4.40;;;2.40;;
67363;SDS011;54250;45.572;38.086;2023-04-28T09:45:02;4.80;;;2.42;;
67363;SDS011;54250;45.572;38.086;2023-04-28T09:47:29;5.40;;;2.50;;
67363;SDS011;54250;45.572;38.086;2023-04-28T09:49:58;5.63;;;2.78;;
67363;SDS011;54250;45.572;38.086;2023-04-28T09:52:25;4.68;;;2.72;;
67363;SDS011;54250;45.572;38.086;2023-04-28T09:54:55;8.35;;;2.35;;
67363;SDS011;54250;45.572;38.086;2023-04-28T09:57:22;4.07;;;2.00;;
67363;SDS011;54250;45.572;38.086;2023-04-28T09:59:49;2.92;;;2.47;;
67363;SDS011;54250;45.572;38.086;2023-04-28T10:02:16;6.07;;;2.50;;
67363;SDS011;54250;45.572;38.086;2023-04-28T10:04:43;6.57;;;2.50;;
67363;SDS011;54250;45.572;38.086;2023-04-28T10:07:10;3.63;;;2.45;;
67363;SDS011;54250;45.572;38.086;2023-04-28T10:09:39;7.85;;;2.72;;
67363;SDS011;54250;45.572;38.086;2023-04-28T10:12:25;4.97;;;2.33;;
67363;SDS011;54250;45.572;38.086;2023-04-28T10:14:52;4.35;;;3.03;;
67363;SDS011;54250;45.572;38.086;2023-04-28T10:17:19;12.55;;;3.15;;
67363;SDS011;54250;45.572;38.086;2023-04-28T10:19:48;4.60;;;2.10;;
67363;SDS011;54250;45.572;38.086;2023-04-28T10:27:44;8.65;;;2.55;;
67363;SDS011;54250;45.572;38.086;2023-04-28T10:30:21;6.82;;;2.47;;
67363;SDS011;54250;45.572;38.086;2023-04-28T10:33:22;4.05;;;2.25;;
67363;SDS011;54250;45.572;38.086;2023-04-28T10:35:41;4.82;;;2.50;;
67363;SDS011;54250;45.572;38.086;2023-04-28T10:38:18;9.25;;;2.88;;
67363;SDS011;54250;45.572;38.086;2023-04-28T10:48:22;6.68;;;1.90;;
67363;SDS011;54250;45.572;38.086;2023-04-28T10:58:43;6.70;;;2.85;;
67363;SDS011;54250;45.572;38.086;2023-04-28T11:06:28;1.80;;;1.23;;
67363;SDS011;54250;45.572;38.086;2023-04-28T11:12:04;1.30;;;0.93;;
67363;SDS011;54250;45.572;38.086;2023-04-28T11:14:31;4.70;;;1.70;;
67363;SDS011;54250;45.572;38.086;2023-04-28T11:22:12;2.47;;;1.63;;
67363;SDS011;54250;45.572;38.086;2023-04-28T11:24:40;3.97;;;1.60;;
67363;SDS011;54250;45.572;38.086;2023-04-28T11:27:06;3.88;;;1.50;;
67363;SDS011;54250;45.572;38.086;2023-04-28T11:29:33;4.53;;;1.63;;
67363;SDS011;54250;45.572;38.086;2023-04-28T11:32:05;6.38;;;2.13;;
67363;SDS011;54250;45.572;38.086;2023-04-28T11:34:32;1.30;;;1.17;;
67363;SDS011;54250;45.572;38.086;2023-04-28T11:37:00;2.17;;;1.40;;
67363;SDS011;54250;45.572;38.086;2023-04-28T11:39:31;1.90;;;1.55;;
67363;SDS011;54250;45.572;38.086;2023-04-28T11:41:58;2.38;;;1.10;;
67363;SDS011;54250;45.572;38.086;2023-04-28T11:44:27;1.83;;;1.23;;
67363;SDS011;54250;45.572;38.086;2023-04-28T11:46:55;4.95;;;1.88;;
67363;SDS011;54250;45.572;38.086;2023-04-28T11:49:25;9.38;;;1.80;;
67363;SDS011;54250;45.572;38.086;2023-04-28T11:52:04;5.05;;;2.00;;
67363;SDS011;54250;45.572;38.086;2023-04-28T11:54:31;2.30;;;1.10;;
67363;SDS011;54250;45.572;38.086;2023-04-28T11:56:58;4.25;;;1.60;;
67363;SDS011;54250;45.572;38.086;2023-04-28T11:59:32;3.95;;;1.58;;
67363;SDS011;54250;45.572;38.086;2023-04-28T12:02:03;1.70;;;1.40;;
67363;SDS011;54250;45.572;38.086;2023-04-28T12:04:38;3.03;;;1.58;;
67363;SDS011;54250;45.572;38.086;2023-04-28T12:09:36;6.57;;;1.70;;
67363;SDS011;54250;45.572;38.086;2023-04-28T12:12:04;5.78;;;1.85;;
67363;SDS011;54250;45.572;38.086;2023-04-28T12:17:28;11.43;;;1.75;;
67363;SDS011;54250;45.572;38.086;2023-04-28T12:20:00;14.90;;;2.10;;
67363;SDS011;54250;45.572;38.086;2023-04-28T12:22:27;5.45;;;1.77;;
67363;SDS011;54250;45.572;38.086;2023-04-28T12:25:04;4.63;;;1.98;;
67363;SDS011;54250;45.572;38.086;2023-04-28T12:27:35;7.90;;;1.85;;
67363;SDS011;54250;45.572;38.086;2023-04-28T12:32:49;4.57;;;1.73;;
67363;SDS011;54250;45.572;38.086;2023-04-28T12:35:16;1.35;;;1.25;;
67363;SDS011;54250;45.572;38.086;2023-04-28T12:37:42;3.15;;;1.52;;
67363;SDS011;54250;45.572;38.086;2023-04-28T12:40:08;2.40;;;1.20;;
67363;SDS011;54250;45.572;38.086;2023-04-28T12:42:36;1.55;;;1.33;;
67363;SDS011;54250;45.572;38.086;2023-04-28T12:45:02;6.78;;;1.33;;
67363;SDS011;54250;45.572;38.086;2023-04-28T12:47:28;2.38;;;1.23;;
67363;SDS011;54250;45.572;38.086;2023-04-28T12:49:55;1.35;;;1.05;;
67363;SDS011;54250;45.572;38.086;2023-04-28T12:52:21;2.38;;;1.50;;
67363;SDS011;54250;45.572;38.086;2023-04-28T12:54:47;2.70;;;0.88;;
67363;SDS011;54250;45.572;38.086;2023-04-28T12:57:17;2.03;;;1.00;;
67363;SDS011;54250;45.572;38.086;2023-04-28T12:59:44;2.20;;;1.08;;
67363;SDS011;54250;45.572;38.086;2023-04-28T13:02:14;1.95;;;1.50;;
67363;SDS011;54250;45.572;38.086;2023-04-28T13:04:40;3.03;;;1.35;;
67363;SDS011;54250;45.572;38.086;2023-04-28T13:07:10;1.27;;;1.17;;
67363;SDS011;54250;45.572;38.086;2023-04-28T13:09:37;1.75;;;1.42;;
67363;SDS011;54250;45.572;38.086;2023-04-28T13:12:03;4.28;;;1.50;;
67363;SDS011;54250;45.572;38.086;2023-04-28T13:14:29;9.95;;;2.28;;
67363;SDS011;54250;45.572;38.086;2023-04-28T13:16:55;7.90;;;1.98;;
67363;SDS011;54250;45.572;38.086;2023-04-28T13:19:25;15.20;;;1.23;;
67363;SDS011;54250;45.572;38.086;2023-04-28T13:21:52;3.90;;;1.30;;
67363;SDS011;54250;45.572;38.086;2023-04-28T13:24:18;1.85;;;1.38;;
67363;SDS011;54250;45.572;38.086;2023-04-28T13:26:44;3.28;;;1.52;;
67363;SDS011;54250;45.572;38.086;2023-04-28T13:29:10;7.30;;;1.70;;
67363;SDS011;54250;45.572;38.086;2023-04-28T13:31:37;5.03;;;1.55;;
67363;SDS011;54250;45.572;38.086;2023-04-28T13:34:03;4.38;;;1.50;;
67363;SDS011;54250;45.572;38.086;2023-04-28T13:36:30;1.50;;;1.40;;
67363;SDS011;54250;45.572;38.086;2023-04-28T13:38:59;6.18;;;1.90;;
67363;SDS011;54250;45.572;38.086;2023-04-28T13:41:25;2.40;;;1.70;;
67363;SDS011;54250;45.572;38.086;2023-04-28T13:43:52;2.90;;;1.50;;
67363;SDS011;54250;45.572;38.086;2023-04-28T13:46:18;3.58;;;1.70;;
67363;SDS011;54250;45.572;38.086;2023-04-28T13:48:45;5.72;;;1.70;;
67363;SDS011;54250;45.572;38.086;2023-04-28T13:51:11;6.55;;;2.10;;
67363;SDS011;54250;45.572;38.086;2023-04-28T13:53:37;1.40;;;1.27;;
67363;SDS011;54250;45.572;38.086;2023-04-28T13:56:06;2.60;;;1.50;;
67363;SDS011;54250;45.572;38.086;2023-04-28T13:58:33;5.28;;;1.42;;
67363;SDS011;54250;45.572;38.086;2023-04-28T14:00:59;2.85;;;1.65;;
67363;SDS011;54250;45.572;38.086;2023-04-28T14:03:25;4.35;;;1.83;;
67363;SDS011;54250;45.572;38.086;2023-04-28T14:05:52;4.25;;;1.85;;
67363;SDS011;54250;45.572;38.086;2023-04-28T14:08:21;4.13;;;2.03;;
67363;SDS011;54250;45.572;38.086;2023-04-28T14:10:48;5.35;;;2.40;;
67363;SDS011;54250;45.572;38.086;2023-04-28T14:13:14;5.85;;;2.65;;
67363;SDS011;54250;45.572;38.086;2023-04-28T14:15:41;9.15;;;4.55;;
67363;SDS011;54250;45.572;38.086;2023-04-28T14:18:07;3.45;;;1.98;;
67363;SDS011;54250;45.572;38.086;2023-04-28T14:20:34;2.50;;;1.77;;
67363;SDS011;54250;45.572;38.086;2023-04-28T14:23:00;2.38;;;1.90;;
67363;SDS011;54250;45.572;38.086;2023-04-28T14:25:26;3.80;;;2.28;;
67363;SDS011;54250;45.572;38.086;2023-04-28T14:27:52;2.30;;;1.80;;
67363;SDS011;54250;45.572;38.086;2023-04-28T14:30:19;2.95;;;2.20;;
67363;SDS011;54250;45.572;38.086;2023-04-28T14:32:46;3.42;;;2.30;;
67363;SDS011;54250;45.572;38.086;2023-04-28T14:35:13;6.50;;;2.23;;
67363;SDS011;54250;45.572;38.086;2023-04-28T14:37:39;2.15;;;1.90;;
67363;SDS011;54250;45.572;38.086;2023-04-28T14:40:06;2.75;;;2.03;;
67363;SDS011;54250;45.572;38.086;2023-04-28T14:42:33;3.03;;;1.95;;
67363;SDS011;54250;45.572;38.086;2023-04-28T14:45:02;2.50;;;2.05;;
67363;SDS011;54250;45.572;38.086;2023-04-28T14:47:29;3.55;;;1.77;;
67363;SDS011;54250;45.572;38.086;2023-04-28T14:49:55;4.60;;;2.20;;
67363;SDS011;54250;45.572;38.086;2023-04-28T14:52:22;4.47;;;2.00;;
67363;SDS011;54250;45.572;38.086;2023-04-28T14:54:51;2.83;;;2.05;;
67363;SDS011;54250;45.572;38.086;2023-04-28T14:57:18;3.85;;;2.00;;
67363;SDS011;54250;45.572;38.086;2023-04-28T14:59:45;3.35;;;1.75;;
67363;SDS011;54250;45.572;38.086;2023-04-28T15:02:11;3.45;;;1.95;;
67363;SDS011;54250;45.572;38.086;2023-04-28T15:04:40;7.40;;;1.73;;
67363;SDS011;54250;45.572;38.086;2023-04-28T15:07:06;6.05;;;2.50;;
67363;SDS011;54250;45.572;38.086;2023-04-28T15:09:33;7.00;;;2.13;;
67363;SDS011;54250;45.572;38.086;2023-04-28T15:12:00;3.60;;;2.22;;
67363;SDS011;54250;45.572;38.086;2023-04-28T15:14:27;3.33;;;1.98;;
67363;SDS011;54250;45.572;38.086;2023-04-28T15:16:53;4.53;;;2.00;;
67363;SDS011;54250;45.572;38.086;2023-04-28T15:19:20;3.80;;;1.88;;
67363;SDS011;54250;45.572;38.086;2023-04-28T15:21:46;3.08;;;1.80;;